createdAt,value
2017-11-01T00:01:44.176Z,86.92
2017-11-01T00:04:10.583Z,86.79
2017-11-01T00:06:36.667Z,86.68
2017-11-01T00:09:02.750Z,87.46
2017-11-01T00:11:28.850Z,88.06
2017-11-01T00:13:54.938Z,88.37
2017-11-01T00:16:26.162Z,87.80
2017-11-01T00:18:52.151Z,87.43
2017-11-01T00:21:18.208Z,87.11
2017-11-01T00:23:44.309Z,87.08
2017-11-01T00:26:10.465Z,87.13
2017-11-01T00:28:36.601Z,88.17
2017-11-01T00:31:02.771Z,87.22
2017-11-01T00:33:28.848Z,87.04
2017-11-01T00:35:55.198Z,86.93
2017-11-01T00:38:21.300Z,86.29
2017-11-01T00:40:47.494Z,86.96
2017-11-01T00:43:13.584Z,86.74
2017-11-01T00:45:39.727Z,86.52
2017-11-01T00:48:05.882Z,86.88
2017-11-01T00:50:31.984Z,85.46
2017-11-01T00:52:58.120Z,85.64
2017-11-01T00:55:24.215Z,85.84
2017-11-01T00:57:50.295Z,86.12
2017-11-01T01:00:16.442Z,85.22
2017-11-01T01:02:42.546Z,84.38
2017-11-01T01:05:08.679Z,83.91
2017-11-01T01:07:34.772Z,85.20
2017-11-01T01:10:00.858Z,85.37
2017-11-01T01:12:26.946Z,87.17
2017-11-01T01:14:52.976Z,88.04
2017-11-01T01:17:19.227Z,88.20
2017-11-01T01:19:45.310Z,88.54
2017-11-01T01:22:11.373Z,88.35
2017-11-01T01:24:37.455Z,88.11
2017-11-01T01:27:03.547Z,88.42
2017-11-01T01:29:29.658Z,88.30
2017-11-01T01:31:55.741Z,88.00
2017-11-01T01:34:21.808Z,87.77
2017-11-01T01:36:47.899Z,87.69
2017-11-01T01:39:13.987Z,87.63
2017-11-01T01:41:40.115Z,87.66
2017-11-01T01:44:06.219Z,87.64
2017-11-01T01:46:32.304Z,87.50
2017-11-01T01:48:58.416Z,88.17
2017-11-01T01:51:24.495Z,88.15
2017-11-01T01:53:50.626Z,87.77
2017-11-01T01:56:16.666Z,87.70
2017-11-01T01:58:42.745Z,87.77
2017-11-01T02:01:08.866Z,87.80
2017-11-01T02:03:35.005Z,87.53
2017-11-01T02:06:01.115Z,87.15
2017-11-01T02:08:27.186Z,87.59
2017-11-01T02:10:53.261Z,86.88
2017-11-01T02:13:19.354Z,85.95
2017-11-01T02:15:45.418Z,85.72
2017-11-01T02:18:11.825Z,84.30
2017-11-01T02:20:37.942Z,81.31
2017-11-01T02:23:03.977Z,80.75
2017-11-01T02:25:30.139Z,80.27
2017-11-01T02:27:56.189Z,80.18
2017-11-01T02:30:22.662Z,79.82
2017-11-01T02:32:48.694Z,80.25
2017-11-01T02:35:14.789Z,80.46
2017-11-01T02:37:40.922Z,80.47
2017-11-01T02:40:06.978Z,80.50
2017-11-01T02:42:33.088Z,79.81
2017-11-01T02:44:59.203Z,79.77
2017-11-01T02:47:25.318Z,79.69
2017-11-01T02:49:51.414Z,79.76
2017-11-01T02:52:17.451Z,79.79
2017-11-01T02:54:43.540Z,80.10
2017-11-01T02:57:09.660Z,80.67
2017-11-01T02:59:37.751Z,80.36
2017-11-01T03:02:03.861Z,80.30
2017-11-01T03:04:29.926Z,80.04
2017-11-01T03:06:55.990Z,79.90
2017-11-01T03:09:22.017Z,79.99
2017-11-01T03:11:48.078Z,79.68
2017-11-01T03:14:14.226Z,79.75
2017-11-01T03:16:40.284Z,79.98
2017-11-01T03:19:06.388Z,79.82
2017-11-01T03:21:32.492Z,80.16
2017-11-01T03:23:58.618Z,79.86
2017-11-01T03:26:24.679Z,79.77
2017-11-01T03:28:50.727Z,80.01
2017-11-01T03:31:16.854Z,80.11
2017-11-01T03:33:42.943Z,80.28
2017-11-01T03:36:09.066Z,80.05
2017-11-01T03:38:35.096Z,80.03
2017-11-01T03:41:01.120Z,79.85
2017-11-01T03:43:27.223Z,80.01
2017-11-01T03:45:53.282Z,79.91
2017-11-01T03:48:19.331Z,80.12
2017-11-01T03:50:45.387Z,79.90
2017-11-01T03:53:11.466Z,80.21
2017-11-01T03:55:37.666Z,79.84
2017-11-01T03:58:03.713Z,79.62
2017-11-01T04:00:29.750Z,79.22
2017-11-01T04:02:55.849Z,79.43
2017-11-01T04:05:21.923Z,79.30
2017-11-01T04:07:47.964Z,79.45
2017-11-01T04:10:14.043Z,79.41
2017-11-01T04:12:40.159Z,78.69
2017-11-01T04:15:06.234Z,78.84
2017-11-01T04:17:32.399Z,78.88
2017-11-01T04:19:58.490Z,79.03
2017-11-01T04:22:24.590Z,78.93
2017-11-01T04:24:50.699Z,79.00
2017-11-01T04:27:16.738Z,79.49
2017-11-01T04:29:42.828Z,79.35
2017-11-01T04:32:08.859Z,79.23
2017-11-01T04:34:34.926Z,79.54
2017-11-01T04:37:01.017Z,79.67
2017-11-01T04:39:27.144Z,79.71
2017-11-01T04:41:53.203Z,80.00
2017-11-01T04:44:19.324Z,80.11
2017-11-01T04:46:45.479Z,80.26
2017-11-01T04:49:11.507Z,80.39
2017-11-01T04:51:37.578Z,80.09
2017-11-01T04:54:03.993Z,79.99
2017-11-01T04:56:30.068Z,80.06
2017-11-01T04:58:56.154Z,80.09
2017-11-01T05:01:22.207Z,80.43
2017-11-01T05:03:48.220Z,80.38
2017-11-01T05:06:19.189Z,80.17
2017-11-01T05:08:48.263Z,80.34
2017-11-01T05:11:14.278Z,80.41
2017-11-01T05:13:41.263Z,80.49
2017-11-01T05:16:07.330Z,80.83
2017-11-01T05:18:33.394Z,80.77
2017-11-01T05:20:59.531Z,80.94
2017-11-01T05:23:25.586Z,80.80
2017-11-01T05:25:54.578Z,80.69
2017-11-01T05:28:20.659Z,80.57
2017-11-01T05:30:46.687Z,80.63
2017-11-01T05:33:12.774Z,80.22
2017-11-01T05:35:38.870Z,80.26
2017-11-01T05:38:04.959Z,80.23
2017-11-01T05:40:31.106Z,80.29
2017-11-01T05:42:57.191Z,80.12
2017-11-01T05:45:23.273Z,80.51
2017-11-01T05:47:49.331Z,80.24
2017-11-01T05:50:15.463Z,80.06
2017-11-01T05:52:41.594Z,80.04
2017-11-01T05:55:07.658Z,80.27
2017-11-01T05:57:33.757Z,80.09
2017-11-01T05:59:59.816Z,80.03
2017-11-01T06:02:25.953Z,80.54
2017-11-01T06:04:52.035Z,80.81
2017-11-01T06:07:18.087Z,81.41
2017-11-01T06:09:44.147Z,81.17
2017-11-01T06:12:10.257Z,81.37
2017-11-01T06:14:36.345Z,81.39
2017-11-01T06:17:02.419Z,81.61
2017-11-01T06:19:28.501Z,81.56
2017-11-01T06:21:54.614Z,81.54
2017-11-01T06:24:20.675Z,81.66
2017-11-01T06:26:46.721Z,81.69
2017-11-01T06:29:12.836Z,81.82
2017-11-01T06:31:39.806Z,82.14
2017-11-01T06:34:06.124Z,82.18
2017-11-01T06:36:32.179Z,82.71
2017-11-01T06:38:58.231Z,82.66
2017-11-01T06:41:24.339Z,82.81
2017-11-01T06:43:50.430Z,82.85
2017-11-01T06:46:16.474Z,82.74
2017-11-01T06:48:42.595Z,83.31
2017-11-01T06:51:08.638Z,83.24
2017-11-01T06:53:34.783Z,83.10
2017-11-01T06:56:00.833Z,83.45
2017-11-01T06:58:26.938Z,83.73
2017-11-01T07:00:53.062Z,83.62
2017-11-01T07:03:23.092Z,83.48
2017-11-01T07:05:49.195Z,83.58
2017-11-01T07:08:15.266Z,83.61
2017-11-01T07:10:41.382Z,84.08
2017-11-01T07:13:07.542Z,84.73
2017-11-01T07:15:33.866Z,84.62
2017-11-01T07:17:59.939Z,83.99
2017-11-01T07:20:25.966Z,84.47
2017-11-01T07:22:52.027Z,85.26
2017-11-01T07:25:18.083Z,83.95
2017-11-01T07:27:44.143Z,84.59
2017-11-01T07:30:10.304Z,84.92
2017-11-01T07:32:36.394Z,85.35
2017-11-01T07:35:02.480Z,84.88
2017-11-01T07:37:28.590Z,84.80
2017-11-01T07:39:54.985Z,85.01
2017-11-01T07:42:21.231Z,84.84
2017-11-01T07:44:47.334Z,85.43
2017-11-01T07:47:13.438Z,85.81
2017-11-01T07:49:39.534Z,86.15
2017-11-01T07:52:05.563Z,85.91
2017-11-01T07:54:31.791Z,85.74
2017-11-01T07:56:57.901Z,85.30
2017-11-01T07:59:23.976Z,85.64
2017-11-01T08:01:50.081Z,86.40
2017-11-01T08:04:16.214Z,86.23
2017-11-01T08:06:42.272Z,86.49
2017-11-01T08:09:08.353Z,86.00
2017-11-01T08:11:34.435Z,86.77
2017-11-01T08:14:00.591Z,86.32
2017-11-01T08:16:26.682Z,86.50
2017-11-01T08:18:53.247Z,87.00
2017-11-01T08:21:19.319Z,87.09
2017-11-01T08:23:45.433Z,86.47
2017-11-01T08:26:11.536Z,87.06
2017-11-01T08:28:37.654Z,86.27
2017-11-01T08:31:04.206Z,85.44
2017-11-01T08:33:30.298Z,86.10
2017-11-01T08:35:56.391Z,86.22
2017-11-01T08:38:22.509Z,86.25
2017-11-01T08:40:48.668Z,85.59
2017-11-01T08:43:15.236Z,86.56
2017-11-01T08:45:41.325Z,86.54
2017-11-01T08:48:07.387Z,85.70
2017-11-01T08:50:33.418Z,84.62
2017-11-01T08:52:59.543Z,85.21
2017-11-01T08:55:25.972Z,85.35
2017-11-01T08:57:52.052Z,85.41
2017-11-01T09:00:18.147Z,84.83
2017-11-01T09:02:44.294Z,84.84
2017-11-01T09:05:10.400Z,85.47
2017-11-01T09:07:36.936Z,85.25
2017-11-01T09:10:03.059Z,84.66
2017-11-01T09:12:29.133Z,84.70
2017-11-01T09:14:55.254Z,84.42
2017-11-01T09:17:21.318Z,84.43
2017-11-01T09:19:47.793Z,84.69
2017-11-01T09:22:13.886Z,84.32
2017-11-01T09:24:40.047Z,83.74
2017-11-01T09:27:06.126Z,83.89
2017-11-01T09:29:32.334Z,84.02
2017-11-01T09:31:58.791Z,83.62
2017-11-01T09:34:24.831Z,83.80
2017-11-01T09:36:50.899Z,84.08
2017-11-01T09:39:17.036Z,83.20
2017-11-01T09:41:43.237Z,83.35
2017-11-01T09:44:09.807Z,83.32
2017-11-01T09:46:35.922Z,82.78
2017-11-01T09:49:02.001Z,83.34
2017-11-01T09:51:28.460Z,83.95
2017-11-01T09:53:54.519Z,82.15
2017-11-01T09:56:20.647Z,82.18
2017-11-01T09:58:46.852Z,82.37
2017-11-01T10:01:13.071Z,82.20
2017-11-01T10:03:39.351Z,81.28
2017-11-01T10:06:05.446Z,81.40
2017-11-01T10:08:31.543Z,80.06
2017-11-01T10:10:57.684Z,80.78
2017-11-01T10:13:23.788Z,80.87
2017-11-01T10:15:49.962Z,79.97
2017-11-01T10:18:16.048Z,79.61
2017-11-01T10:20:42.134Z,78.65
2017-11-01T10:23:08.251Z,79.40
2017-11-01T10:25:34.343Z,76.74
2017-11-01T10:28:00.500Z,77.50
2017-11-01T10:30:26.587Z,76.38
2017-11-01T10:32:52.674Z,76.92
2017-11-01T10:35:18.866Z,76.55
2017-11-01T10:37:44.904Z,76.55
2017-11-01T10:40:11.056Z,76.35
2017-11-01T10:42:37.131Z,75.28
2017-11-01T10:45:03.427Z,75.95
2017-11-01T10:47:29.524Z,75.41
2017-11-01T10:49:55.620Z,75.82
2017-11-01T10:52:21.654Z,75.43
2017-11-01T10:54:47.749Z,75.18
2017-11-01T10:57:13.835Z,75.33
2017-11-01T10:59:40.242Z,75.21
2017-11-01T11:02:06.372Z,74.21
2017-11-01T11:04:32.478Z,74.33
2017-11-01T11:06:58.582Z,73.62
2017-11-01T11:09:24.751Z,74.14
2017-11-01T11:11:51.371Z,74.22
2017-11-01T11:14:17.456Z,74.21
2017-11-01T11:16:43.496Z,73.95
2017-11-01T11:19:09.722Z,73.88
2017-11-01T11:21:35.875Z,73.66
2017-11-01T11:24:02.052Z,73.44
2017-11-01T11:26:28.128Z,73.87
2017-11-01T11:28:54.319Z,73.34
2017-11-01T11:31:20.515Z,73.24
2017-11-01T11:33:46.582Z,73.87
2017-11-01T11:36:12.724Z,74.71
2017-11-01T11:38:38.814Z,74.99
2017-11-01T11:41:04.951Z,76.48
2017-11-01T11:43:31.065Z,75.71
2017-11-01T11:45:57.207Z,76.59
2017-11-01T11:48:23.323Z,78.39
2017-11-01T11:50:49.467Z,78.22
2017-11-01T11:53:15.519Z,78.52
2017-11-01T11:55:41.617Z,78.75
2017-11-01T11:58:07.687Z,78.20
2017-11-01T12:00:33.948Z,77.94
2017-11-01T12:03:00.006Z,76.86
2017-11-01T12:05:26.170Z,77.31
2017-11-01T12:07:52.298Z,77.48
2017-11-01T12:10:18.393Z,78.14
2017-11-01T12:12:44.811Z,77.58
2017-11-01T12:15:10.930Z,78.00
2017-11-01T12:17:37.045Z,76.96
2017-11-01T12:20:03.143Z,77.60
2017-11-01T12:22:29.214Z,78.08
2017-11-01T12:24:55.368Z,77.75
2017-11-01T12:27:21.454Z,77.69
2017-11-01T12:29:47.618Z,76.75
2017-11-01T12:32:13.731Z,76.99
2017-11-01T12:34:39.923Z,77.07
2017-11-01T12:37:06.047Z,77.35
2017-11-01T12:39:32.130Z,75.82
2017-11-01T12:41:58.266Z,76.25
2017-11-01T12:44:24.360Z,76.48
2017-11-01T12:46:50.527Z,76.08
2017-11-01T12:49:16.653Z,76.21
2017-11-01T12:51:42.818Z,75.30
2017-11-01T12:54:08.890Z,76.54
2017-11-01T12:56:35.082Z,75.48
2017-11-01T12:59:01.159Z,75.34
2017-11-01T13:01:27.335Z,74.84
2017-11-01T13:03:53.439Z,75.11
2017-11-01T13:06:19.608Z,75.81
2017-11-01T13:08:45.719Z,75.13
2017-11-01T13:11:11.866Z,74.90
2017-11-01T13:13:38.015Z,74.72
2017-11-01T13:16:04.193Z,75.12
2017-11-01T13:18:30.310Z,75.27
2017-11-01T13:20:56.457Z,75.60
2017-11-01T13:23:22.540Z,74.99
2017-11-01T13:25:48.667Z,75.32
2017-11-01T13:28:14.822Z,75.45
2017-11-01T13:30:40.941Z,75.08
2017-11-01T13:33:07.120Z,74.80
2017-11-01T13:35:33.202Z,74.88
2017-11-01T13:37:59.385Z,74.54
2017-11-01T13:40:25.464Z,75.22
2017-11-01T13:42:51.578Z,75.57
2017-11-01T13:45:17.703Z,74.65
2017-11-01T13:47:43.823Z,74.46
2017-11-01T13:50:09.980Z,73.54
2017-11-01T13:52:36.076Z,73.85
2017-11-01T13:55:02.166Z,73.49
2017-11-01T13:57:28.658Z,72.32
2017-11-01T13:59:54.779Z,72.54
2017-11-01T14:02:20.839Z,72.00
2017-11-01T14:04:46.955Z,72.54
2017-11-01T14:07:13.071Z,72.17
2017-11-01T14:09:39.199Z,70.61
2017-11-01T14:12:05.228Z,67.45
2017-11-01T14:14:31.350Z,64.73
2017-11-01T14:16:57.483Z,62.72
2017-11-01T14:19:23.587Z,61.08
2017-11-01T14:21:49.675Z,62.62
2017-11-01T14:24:15.767Z,65.32
2017-11-01T14:26:41.886Z,66.13
2017-11-01T14:29:08.031Z,67.37
2017-11-01T14:31:34.123Z,68.13
2017-11-01T14:34:00.555Z,66.52
2017-11-01T14:36:26.678Z,63.97
2017-11-01T14:38:52.791Z,62.28
2017-11-01T14:41:18.950Z,60.89
2017-11-01T14:43:45.135Z,60.17
2017-11-01T14:46:11.246Z,59.93
2017-11-01T14:48:37.460Z,59.48
2017-11-01T14:51:03.603Z,60.88
2017-11-01T14:53:29.738Z,59.89
2017-11-01T14:55:55.790Z,60.59
2017-11-01T14:58:22.259Z,61.14
2017-11-01T15:00:48.387Z,60.45
2017-11-01T15:03:14.460Z,60.82
2017-11-01T15:05:40.633Z,62.65
2017-11-01T15:08:06.723Z,63.32
2017-11-01T15:10:32.815Z,63.86
2017-11-01T15:12:58.975Z,64.88
2017-11-01T15:15:25.098Z,65.59
2017-11-01T15:17:51.239Z,66.82
2017-11-01T15:20:17.300Z,67.78
2017-11-01T15:22:43.462Z,68.57
2017-11-01T15:25:09.997Z,69.10
2017-11-01T15:27:36.069Z,69.95
2017-11-01T15:30:02.211Z,70.14
2017-11-01T15:32:28.343Z,70.58
2017-11-01T15:34:54.459Z,71.42
2017-11-01T15:37:20.810Z,71.60
2017-11-01T15:39:46.840Z,71.52
2017-11-01T15:42:12.951Z,72.41
2017-11-01T15:44:39.135Z,72.43
2017-11-01T15:47:05.293Z,73.40
2017-11-01T15:49:31.383Z,74.33
2017-11-01T15:51:57.518Z,74.21
2017-11-01T15:54:23.654Z,74.10
2017-11-01T15:56:49.759Z,74.53
2017-11-01T15:59:16.031Z,74.97
2017-11-01T16:01:42.147Z,75.41
2017-11-01T16:04:08.250Z,76.05
2017-11-01T16:06:34.327Z,76.31
2017-11-01T16:09:00.479Z,76.75
2017-11-01T16:11:26.572Z,78.53
2017-11-01T16:13:52.717Z,80.03
2017-11-01T16:16:18.801Z,79.98
2017-11-01T16:18:44.909Z,79.65
2017-11-01T16:21:11.045Z,79.22
2017-11-01T16:23:37.111Z,79.28
2017-11-01T16:26:03.311Z,79.29
2017-11-01T16:28:29.419Z,79.55
2017-11-01T16:30:55.550Z,79.83
2017-11-01T16:33:21.990Z,80.13
2017-11-01T16:35:48.107Z,81.69
2017-11-01T16:38:14.285Z,81.63
2017-11-01T16:40:40.394Z,81.66
2017-11-01T16:43:07.382Z,81.29
2017-11-01T16:45:33.609Z,81.67
2017-11-01T16:47:59.730Z,81.85
2017-11-01T16:50:25.867Z,81.98
2017-11-01T16:52:52.451Z,82.05
2017-11-01T16:55:18.656Z,83.24
2017-11-01T16:57:44.768Z,84.48
2017-11-01T17:00:10.866Z,84.18
2017-11-01T17:02:36.984Z,84.85
2017-11-01T17:05:03.162Z,84.44
2017-11-01T17:07:29.611Z,84.39
2017-11-01T17:09:55.724Z,84.01
2017-11-01T17:12:21.957Z,84.24
2017-11-01T17:14:48.049Z,84.47
2017-11-01T17:17:14.215Z,84.78
2017-11-01T17:19:40.414Z,84.07
2017-11-01T17:22:06.600Z,84.28
2017-11-01T17:24:32.764Z,86.52
2017-11-01T17:26:58.957Z,87.01
2017-11-01T17:29:25.152Z,87.00
2017-11-01T17:31:51.352Z,86.07
2017-11-01T17:34:17.545Z,85.62
2017-11-01T17:36:43.728Z,85.66
2017-11-01T17:39:09.818Z,85.37
2017-11-01T17:41:35.987Z,85.53
2017-11-01T17:44:02.196Z,85.90
2017-11-01T17:46:28.333Z,87.21
2017-11-01T17:48:54.461Z,87.09
2017-11-01T17:51:20.693Z,86.79
2017-11-01T17:53:46.828Z,86.86
2017-11-01T17:56:12.941Z,86.60
2017-11-01T17:58:39.128Z,86.45
2017-11-01T18:01:06.103Z,86.70
2017-11-01T18:03:32.289Z,86.50
2017-11-01T18:05:58.475Z,86.22
2017-11-01T18:08:24.695Z,86.35
2017-11-01T18:10:50.921Z,86.12
2017-11-01T18:13:17.201Z,86.09
2017-11-01T18:15:43.344Z,85.81
2017-11-01T18:18:09.559Z,87.03
2017-11-01T18:20:36.403Z,86.87
2017-11-01T18:23:02.622Z,87.17
2017-11-01T18:25:28.807Z,87.63
2017-11-01T18:27:54.973Z,90.08
2017-11-01T18:30:21.225Z,89.81
2017-11-01T18:32:47.431Z,90.10
2017-11-01T18:35:13.580Z,89.81
2017-11-01T18:37:39.761Z,89.53
2017-11-01T18:40:06.050Z,89.25
2017-11-01T18:42:32.241Z,88.08
2017-11-01T18:44:58.519Z,87.97
2017-11-01T18:47:24.796Z,88.20
2017-11-01T18:49:51.029Z,87.75
2017-11-01T18:52:17.452Z,87.90
2017-11-01T18:54:43.709Z,87.75
2017-11-01T18:57:10.001Z,87.79
2017-11-01T18:59:36.300Z,86.95
2017-11-01T19:02:02.893Z,87.43
2017-11-01T19:04:29.239Z,87.94
2017-11-01T19:06:55.479Z,89.59
2017-11-01T19:09:21.809Z,89.83
2017-11-01T19:11:48.146Z,89.05
2017-11-01T19:14:14.443Z,89.01
2017-11-01T19:16:40.858Z,88.91
2017-11-01T19:19:07.219Z,88.46
2017-11-01T19:21:33.564Z,88.09
2017-11-01T19:23:59.963Z,88.11
2017-11-01T19:26:27.306Z,87.87
2017-11-01T19:28:53.659Z,87.78
2017-11-01T19:31:20.372Z,87.71
2017-11-01T19:33:47.783Z,87.83
2017-11-01T19:36:14.161Z,88.12
2017-11-01T19:38:41.274Z,87.99
2017-11-01T19:41:07.646Z,87.69
2017-11-01T19:43:34.014Z,88.08
2017-11-01T19:55:45.514Z,89.00
2017-11-01T19:58:12.000Z,89.05
2017-11-01T20:00:38.491Z,90.01
2017-11-01T20:03:06.173Z,89.96
2017-11-01T20:05:32.547Z,90.37
2017-11-01T20:07:58.945Z,90.00
2017-11-01T20:10:25.481Z,88.89
2017-11-01T20:12:53.624Z,88.69
2017-11-01T20:15:20.147Z,88.32
2017-11-01T20:17:48.782Z,88.57
2017-11-01T20:20:15.969Z,89.29
2017-11-01T20:22:42.372Z,89.88
2017-11-01T20:25:08.815Z,89.42
2017-11-01T20:27:36.179Z,89.36
2017-11-01T20:30:02.621Z,89.33
2017-11-01T20:32:30.590Z,89.04
2017-11-01T20:34:57.921Z,88.54
2017-11-01T20:37:25.200Z,89.08
2017-11-01T20:39:51.984Z,89.10
2017-11-01T20:42:18.408Z,88.68
2017-11-01T20:44:45.752Z,88.61
2017-11-01T20:47:13.147Z,88.66
2017-11-01T20:49:39.515Z,88.85
2017-11-01T20:52:05.914Z,88.59
2017-11-01T20:54:32.413Z,88.87
2017-11-01T20:56:59.798Z,89.85
2017-11-01T20:59:26.204Z,89.71
2017-11-01T21:01:52.578Z,89.60
2017-11-01T21:04:19.419Z,89.07
2017-11-01T21:06:45.882Z,89.59
2017-11-01T21:09:12.290Z,89.27
2017-11-01T21:11:39.608Z,89.55
2017-11-01T21:14:07.431Z,89.49
2017-11-01T21:16:33.789Z,89.44
2017-11-01T21:19:00.169Z,89.44
2017-11-01T21:31:11.562Z,86.98
2017-11-01T21:33:37.902Z,87.45
2017-11-01T21:36:04.190Z,87.78
2017-11-01T21:38:30.540Z,88.21
2017-11-01T21:40:56.870Z,87.46
2017-11-01T21:43:23.252Z,86.97
2017-11-01T21:45:49.622Z,87.07
2017-11-01T21:48:15.946Z,87.87
2017-11-01T21:50:42.199Z,88.76
2017-11-01T21:53:08.581Z,88.87
2017-11-01T21:55:34.724Z,87.71
2017-11-01T21:58:00.965Z,87.30
2017-11-01T22:00:27.141Z,87.65
2017-11-01T22:02:53.253Z,88.36
2017-11-01T22:05:19.403Z,88.86
2017-11-01T22:07:45.597Z,88.91
2017-11-01T22:10:11.713Z,89.08
2017-11-01T22:12:37.832Z,88.83
2017-11-01T22:15:04.198Z,88.92
2017-11-01T22:17:30.294Z,89.10
2017-11-01T22:19:56.402Z,89.35
2017-11-01T22:22:22.532Z,89.32
2017-11-01T22:24:48.590Z,89.33
2017-11-01T22:27:14.663Z,89.55
2017-11-01T22:29:41.040Z,90.09
2017-11-01T22:32:07.181Z,90.27
2017-11-01T22:34:33.309Z,90.63
2017-11-01T22:36:59.483Z,90.91
2017-11-01T22:39:25.667Z,90.61
2017-11-01T22:41:51.773Z,90.52
2017-11-01T22:44:17.930Z,90.11
2017-11-01T22:46:43.980Z,89.96
2017-11-01T22:49:10.075Z,89.66
2017-11-01T22:51:36.288Z,89.67
2017-11-01T22:54:02.394Z,90.10
2017-11-01T22:56:28.466Z,89.91
2017-11-01T22:58:54.581Z,90.49
2017-11-01T23:01:20.723Z,89.86
2017-11-01T23:03:46.822Z,89.59
2017-11-01T23:06:13.037Z,90.42
2017-11-01T23:08:39.147Z,90.68
2017-11-01T23:11:05.282Z,89.98
2017-11-01T23:13:31.442Z,90.00
2017-11-01T23:15:57.543Z,89.93
2017-11-01T23:18:23.739Z,89.80
2017-11-01T23:20:49.839Z,89.50
2017-11-01T23:23:15.978Z,89.20
2017-11-01T23:25:42.126Z,89.17
2017-11-01T23:28:08.236Z,88.96
2017-11-01T23:30:34.266Z,89.25
2017-11-01T23:33:00.360Z,89.19
2017-11-01T23:35:26.491Z,89.51
2017-11-01T23:37:52.502Z,89.05
2017-11-01T23:40:18.580Z,89.61
2017-11-01T23:42:44.653Z,89.54
2017-11-01T23:45:10.786Z,89.45
2017-11-01T23:47:36.917Z,89.44
2017-11-01T23:50:03.107Z,89.48
2017-11-01T23:52:29.266Z,89.25
2017-11-01T23:54:55.423Z,90.08
2017-11-01T23:57:21.475Z,89.89
2017-11-01T23:59:47.595Z,90.62
